Time;durP1;ratioP1;P1;durP2;ratioP2;P2;SDS_P1;SDS_P2;PMS_P1;PMS_P2;Temp;Humidity;BMP_temperature;BMP_pressure;BME280_temperature;BME280_humidity;BME280_pressure;Samples;Min_cycle;Max_cycle;Signal;HPM_P1;HPM_P2
2022/06/02 00:00:05;;;;;;;7.90;6.97;;;10.20;99.90;;;;;;5058716;28;20045;-44
2022/06/02 00:02:36;;;;;;;7.78;6.97;;;10.20;99.90;;;;;;5061328;28;20056;-43
2022/06/02 00:05:13;;;;;;;9.20;8.03;;;10.20;99.90;;;;;;5056732;28;20516;-44
2022/06/02 00:07:49;;;;;;;8.77;7.88;;;10.10;99.90;;;;;;5066217;28;20057;-44
2022/06/02 00:10:22;;;;;;;7.63;6.82;;;10.10;99.90;;;;;;5071489;28;20041;-44
2022/06/02 00:12:53;;;;;;;7.53;6.80;;;10.10;99.90;;;;;;5067148;28;20161;-43
2022/06/02 00:15:23;;;;;;;8.40;6.30;;;10.00;99.90;;;;;;5056313;28;20048;-44
2022/06/02 00:17:57;;;;;;;11.15;8.00;;;10.00;99.90;;;;;;5061941;28;20464;-44
2022/06/02 00:20:27;;;;;;;8.52;7.65;;;10.00;99.90;;;;;;5071996;28;20102;-44
2022/06/02 00:23:23;;;;;;;8.68;7.78;;;10.00;99.90;;;;;;5076228;28;20689;-44
2022/06/02 00:25:54;;;;;;;11.88;9.43;;;10.00;99.90;;;;;;5059830;28;20193;-44
2022/06/02 00:28:26;;;;;;;10.77;8.32;;;9.90;99.90;;;;;;5077392;28;20099;-44
2022/06/02 00:30:55;;;;;;;13.05;8.15;;;9.90;99.90;;;;;;5071880;28;20040;-44
2022/06/02 00:33:25;;;;;;;7.93;6.93;;;9.80;99.90;;;;;;5064082;28;20408;-44
2022/06/02 00:35:54;;;;;;;9.02;8.05;;;9.90;99.90;;;;;;5053970;28;20049;-43
2022/06/02 00:38:25;;;;;;;9.05;7.43;;;9.80;99.90;;;;;;5060872;28;20491;-44
2022/06/02 00:40:52;;;;;;;9.35;8.45;;;9.80;99.90;;;;;;5058811;28;20057;-43
2022/06/02 00:43:38;;;;;;;8.00;7.20;;;9.70;99.90;;;;;;5069096;28;20065;-43
2022/06/02 00:46:09;;;;;;;8.10;7.25;;;9.70;99.90;;;;;;5059936;28;20049;-43
2022/06/02 00:48:46;;;;;;;10.20;8.95;;;9.70;99.90;;;;;;5054771;28;20477;-43
2022/06/02 00:51:15;;;;;;;9.90;8.90;;;9.70;99.90;;;;;;5065073;28;20041;-43
2022/06/02 00:57:30;;;;;;;8.40;7.22;;;9.60;99.90;;;;;;5056231;28;20087;-44
2022/06/02 00:59:23;;;;;;;9.60;8.60;;;9.60;99.90;;;;;;5053835;28;20048;-43
2022/06/02 01:01:51;;;;;;;9.88;7.95;;;9.50;99.90;;;;;;5059794;28;20109;-43
2022/06/02 01:04:19;;;;;;;10.85;9.27;;;9.50;99.90;;;;;;5068392;28;20045;-43
2022/06/02 01:06:52;;;;;;;9.80;8.57;;;9.50;99.90;;;;;;5066327;28;20098;-44
2022/06/02 01:09:37;;;;;;;8.23;7.40;;;9.50;99.90;;;;;;5051833;28;20053;-43
2022/06/02 01:12:16;;;;;;;9.80;8.80;;;9.50;99.90;;;;;;5066898;28;20051;-43
2022/06/02 01:14:51;;;;;;;9.40;8.45;;;9.50;99.90;;;;;;5051312;28;20076;-43
2022/06/02 01:17:21;;;;;;;10.40;9.07;;;9.50;99.90;;;;;;5051212;28;20095;-43
2022/06/02 01:20:10;;;;;;;9.38;8.48;;;9.40;99.90;;;;;;5063605;28;20048;-43
2022/06/02 01:23:07;;;;;;;13.25;9.20;;;9.40;99.90;;;;;;5073555;28;20558;-44
2022/06/02 01:26:01;;;;;;;11.18;8.65;;;9.40;99.90;;;;;;5053002;28;20543;-43
2022/06/02 01:28:48;;;;;;;11.90;10.70;;;9.30;99.90;;;;;;5058821;28;20056;-44
2022/06/02 01:31:28;;;;;;;12.35;9.95;;;9.30;99.90;;;;;;5072713;28;20052;-44
2022/06/02 01:33:59;;;;;;;13.40;10.75;;;9.20;99.90;;;;;;5051729;28;20049;-42
2022/06/02 01:36:29;;;;;;;14.85;11.65;;;9.20;99.90;;;;;;5060605;28;20094;-43
2022/06/02 01:39:04;;;;;;;12.27;10.98;;;9.20;99.90;;;;;;5069609;28;20047;-43
2022/06/02 01:41:37;;;;;;;14.95;11.32;;;9.20;99.90;;;;;;5053320;28;20549;-43
2022/06/02 01:44:07;;;;;;;11.32;10.20;;;9.20;99.90;;;;;;5061931;28;20048;-43
2022/06/02 01:46:42;;;;;;;11.05;9.95;;;9.10;99.90;;;;;;5066519;28;20136;-43
2022/06/02 01:49:30;;;;;;;10.52;8.98;;;9.20;99.90;;;;;;5061016;28;20051;-43
2022/06/02 01:52:04;;;;;;;10.73;9.63;;;9.10;99.90;;;;;;5086186;28;20436;-43
2022/06/02 01:54:41;;;;;;;13.25;10.32;;;9.10;99.90;;;;;;5065008;28;20056;-44
2022/06/02 01:57:18;;;;;;;10.07;8.85;;;9.00;99.90;;;;;;5063610;28;20040;-43
2022/06/02 01:59:52;;;;;;;10.80;9.15;;;9.00;99.90;;;;;;5063721;28;20115;-44
2022/06/02 02:02:22;;;;;;;13.70;11.05;;;9.00;99.90;;;;;;5060605;28;20091;-44
2022/06/02 02:05:06;;;;;;;11.57;10.38;;;9.00;99.90;;;;;;5061957;28;20057;-44
2022/06/02 02:07:47;;;;;;;12.27;10.85;;;9.00;99.90;;;;;;5087048;28;20048;-44
2022/06/02 02:10:22;;;;;;;10.07;8.77;;;8.90;99.90;;;;;;5080782;28;20088;-43
2022/06/02 02:13:02;;;;;;;10.45;9.40;;;8.90;99.90;;;;;;5075718;28;20052;-43
2022/06/02 02:15:35;;;;;;;13.68;11.05;;;8.90;99.90;;;;;;5079758;28;20084;-44
2022/06/02 02:18:19;;;;;;;10.82;9.60;;;8.90;99.90;;;;;;5058860;28;20455;-44
2022/06/02 02:21:00;;;;;;;11.13;9.63;;;8.90;99.90;;;;;;5070752;28;20431;-43
2022/06/02 02:23:31;;;;;;;14.90;12.17;;;8.80;99.90;;;;;;5058959;28;20473;-44
2022/06/02 02:26:00;;;;;;;11.17;9.37;;;8.80;99.90;;;;;;5069158;28;20048;-43
2022/06/02 02:28:32;;;;;;;13.48;11.05;;;8.80;99.90;;;;;;5056353;28;20083;-44
2022/06/02 02:31:06;;;;;;;14.13;11.75;;;8.80;99.90;;;;;;5083913;28;20066;-42
2022/06/02 02:33:38;;;;;;;14.75;12.63;;;8.80;99.90;;;;;;5067774;28;20142;-43
2022/06/02 02:36:11;;;;;;;13.95;12.55;;;8.80;99.90;;;;;;5060903;28;20045;-44
2022/06/02 02:38:43;;;;;;;13.95;10.70;;;8.70;99.90;;;;;;5066922;28;20096;-43
2022/06/02 02:41:13;;;;;;;14.13;11.38;;;8.70;99.90;;;;;;5071759;28;20076;-43
2022/06/02 02:43:41;;;;;;;11.73;10.48;;;8.70;99.90;;;;;;5055316;28;20056;-44
2022/06/02 02:46:13;;;;;;;11.13;10.00;;;8.70;99.90;;;;;;5055150;28;20083;-44
2022/06/02 02:48:50;;;;;;;12.80;11.25;;;8.70;99.90;;;;;;5073898;28;20056;-44
2022/06/02 02:51:23;;;;;;;10.80;9.70;;;8.60;99.90;;;;;;5056484;28;20089;-43
2022/06/02 02:53:52;;;;;;;11.20;10.02;;;8.60;99.90;;;;;;5053934;28;20118;-43
2022/06/02 02:56:22;;;;;;;11.18;9.77;;;8.60;99.90;;;;;;5053339;28;20049;-44
2022/06/02 02:58:51;;;;;;;11.13;10.02;;;8.60;99.90;;;;;;5054236;28;20087;-43
2022/06/02 03:01:21;;;;;;;10.70;9.60;;;8.60;99.90;;;;;;5070241;28;20056;-43
2022/06/02 03:04:07;;;;;;;12.05;10.48;;;8.60;99.90;;;;;;5054366;28;20094;-43
2022/06/02 03:06:34;;;;;;;13.30;10.30;;;8.50;99.90;;;;;;5061576;28;20056;-44
2022/06/02 03:09:05;;;;;;;11.75;10.20;;;8.50;99.90;;;;;;5063629;28;20145;-42
2022/06/02 03:11:44;;;;;;;11.10;9.95;;;8.50;99.90;;;;;;5069305;28;20184;-43
2022/06/02 03:14:14;;;;;;;10.27;9.27;;;8.50;99.90;;;;;;5054498;28;20092;-44
2022/06/02 03:16:41;;;;;;;11.37;10.17;;;8.40;99.90;;;;;;5056669;28;20056;-43
2022/06/02 03:19:16;;;;;;;10.43;9.32;;;8.40;99.90;;;;;;5067751;28;20086;-44
2022/06/02 03:21:46;;;;;;;11.05;9.88;;;8.40;99.90;;;;;;5073437;28;20052;-44
2022/06/02 03:24:40;;;;;;;13.68;11.25;;;8.40;99.90;;;;;;5058195;28;20053;-45
2022/06/02 03:27:15;;;;;;;14.02;9.88;;;8.40;99.90;;;;;;5066416;28;20041;-44
2022/06/02 03:29:53;;;;;;;12.95;11.60;;;8.30;99.90;;;;;;5061084;28;20110;-43
2022/06/02 03:32:27;;;;;;;14.48;11.10;;;8.30;99.90;;;;;;5064135;28;20045;-43
2022/06/02 03:34:59;;;;;;;11.13;9.77;;;8.30;99.90;;;;;;5053830;28;20107;-43
2022/06/02 03:37:34;;;;;;;12.77;10.95;;;8.30;99.90;;;;;;5068086;28;20110;-43
2022/06/02 03:40:22;;;;;;;11.73;10.52;;;8.30;99.90;;;;;;5058140;28;20045;-43
2022/06/02 03:42:52;;;;;;;12.25;10.35;;;8.30;99.90;;;;;;5064903;28;20052;-44
2022/06/02 03:45:39;;;;;;;12.27;9.35;;;8.30;99.90;;;;;;5072938;28;20102;-43
2022/06/02 03:48:16;;;;;;;10.73;9.50;;;8.20;99.90;;;;;;5059076;28;20450;-44
2022/06/02 03:50:52;;;;;;;11.60;10.40;;;8.20;99.90;;;;;;5052445;28;20485;-43
2022/06/02 03:53:34;;;;;;;10.93;9.80;;;8.20;99.90;;;;;;5053748;28;20135;-44
2022/06/02 03:56:07;;;;;;;12.18;10.20;;;8.20;99.90;;;;;;5057374;28;20107;-44
2022/06/02 03:58:44;;;;;;;12.05;9.98;;;8.20;99.90;;;;;;5065947;28;20080;-44
2022/06/02 04:01:13;;;;;;;11.82;10.43;;;8.20;99.90;;;;;;5059368;28;20056;-45
2022/06/02 04:03:58;;;;;;;11.80;9.65;;;8.20;99.90;;;;;;5069354;28;20106;-43
2022/06/02 04:06:31;;;;;;;11.35;10.15;;;8.20;99.90;;;;;;5072118;28;20072;-44
2022/06/02 04:09:03;;;;;;;14.00;10.10;;;8.20;99.90;;;;;;5072522;28;20036;-44
2022/06/02 04:14:30;;;;;;;11.75;9.77;;;8.20;99.90;;;;;;5070739;28;20052;-44
2022/06/02 04:16:58;;;;;;;;;;;8.20;99.90;;;;;;5070559;28;20061;-44
2022/06/02 04:22:36;;;;;;;10.85;9.75;;;8.20;99.90;;;;;;5024161;28;20075;-44
2022/06/02 04:25:11;;;;;;;10.57;9.07;;;8.20;99.90;;;;;;5069912;28;20052;-44
2022/06/02 04:27:42;;;;;;;14.05;10.60;;;8.20;99.90;;;;;;5068879;28;20125;-44
2022/06/02 04:30:14;;;;;;;13.68;11.85;;;8.20;99.90;;;;;;5059063;28;20074;-43
2022/06/02 04:32:45;;;;;;;10.40;9.30;;;8.20;99.90;;;;;;5075332;28;20051;-43
2022/06/02 04:35:31;;;;;;;11.70;10.02;;;8.30;99.90;;;;;;5066383;28;20056;-44
2022/06/02 04:38:03;;;;;;;9.65;8.68;;;8.30;99.90;;;;;;5060301;28;20044;-43
2022/06/02 04:40:38;;;;;;;11.57;10.35;;;8.30;99.90;;;;;;5069292;28;20044;-44
2022/06/02 04:43:08;;;;;;;12.65;10.93;;;8.30;99.90;;;;;;5059937;28;20064;-44
2022/06/02 04:45:38;;;;;;;12.90;11.18;;;8.40;99.90;;;;;;5063763;28;20084;-43
2022/06/02 04:48:10;;;;;;;14.10;11.07;;;8.40;99.90;;;;;;5064080;28;20049;-43
2022/06/02 04:50:44;;;;;;;11.63;10.35;;;8.40;99.90;;;;;;5060653;28;20124;-43
2022/06/02 04:53:16;;;;;;;13.20;11.48;;;8.40;99.90;;;;;;5065652;28;20083;-45
2022/06/02 04:55:50;;;;;;;12.40;11.10;;;8.50;99.90;;;;;;5068043;28;20131;-45
2022/06/02 04:58:19;;;;;;;19.02;13.98;;;8.50;99.90;;;;;;5075696;28;20059;-44
2022/06/02 05:01:37;;;;;;;15.75;12.20;;;8.50;99.90;;;;;;5058292;28;20065;-45
2022/06/02 05:04:13;;;;;;;13.43;11.60;;;8.60;99.90;;;;;;5062355;28;20055;-44
2022/06/02 05:06:43;;;;;;;22.73;17.48;;;8.70;99.90;;;;;;5062432;28;21175;-43
2022/06/02 05:09:14;;;;;;;21.48;17.92;;;8.70;99.90;;;;;;5055653;28;20084;-43
2022/06/02 05:11:48;;;;;;;24.95;17.55;;;8.80;99.90;;;;;;5064230;28;20052;-44
2022/06/02 05:14:24;;;;;;;22.40;16.67;;;8.90;99.90;;;;;;5067735;28;20052;-44
2022/06/02 05:16:56;;;;;;;18.33;15.10;;;9.00;99.90;;;;;;5066043;28;20049;-43
2022/06/02 05:19:30;;;;;;;;;;;9.10;99.90;;;;;;5071946;28;20056;-43
2022/06/02 05:22:32;;;;;;;27.52;17.90;;;9.10;99.90;;;;;;5054238;28;20355;-43
2022/06/02 05:25:47;;;;;;;22.08;17.40;;;9.20;99.90;;;;;;5069051;28;20049;-43
2022/06/02 05:28:44;;;;;;;19.10;16.30;;;9.40;99.90;;;;;;5016797;28;20053;-44
2022/06/02 05:31:24;;;;;;;21.08;16.98;;;9.50;99.90;;;;;;5070934;28;20109;-43
2022/06/02 05:34:16;;;;;;;18.85;15.57;;;9.70;99.90;;;;;;5070507;28;20045;-43
2022/06/02 05:36:51;;;;;;;20.00;16.38;;;9.90;99.90;;;;;;5070039;28;20497;-43
2022/06/02 05:39:35;;;;;;;19.27;15.20;;;10.00;99.90;;;;;;5084706;28;20128;-44
2022/06/02 05:42:11;;;;;;;24.83;16.50;;;10.10;99.90;;;;;;5062398;28;20053;-44
2022/06/02 05:44:46;;;;;;;15.57;13.88;;;10.30;99.90;;;;;;5059532;28;20056;-45
2022/06/02 05:47:25;;;;;;;22.38;16.58;;;10.40;99.90;;;;;;5070487;28;20412;-44
2022/06/02 05:49:56;;;;;;;24.05;15.40;;;10.60;99.90;;;;;;5051879;28;20053;-44
2022/06/02 05:52:29;;;;;;;15.50;13.52;;;10.70;99.90;;;;;;5051980;28;20041;-44
2022/06/02 05:55:12;;;;;;;15.02;12.50;;;10.80;99.90;;;;;;5050794;28;20094;-44
2022/06/02 05:57:42;;;;;;;15.40;13.10;;;11.00;99.90;;;;;;5051944;28;20497;-43
2022/06/02 06:00:15;;;;;;;14.88;12.77;;;11.10;99.90;;;;;;5064979;28;20113;-44
2022/06/02 06:03:06;;;;;;;14.00;12.45;;;11.20;99.90;;;;;;5069308;28;20064;-44
2022/06/02 06:05:34;;;;;;;15.00;11.65;;;11.40;99.90;;;;;;5066236;28;20056;-44
2022/06/02 06:08:12;;;;;;;13.13;11.63;;;11.50;99.90;;;;;;5070320;28;20439;-44
2022/06/02 06:10:40;;;;;;;17.23;12.05;;;11.70;99.90;;;;;;5070958;28;20058;-45
2022/06/02 06:13:24;;;;;;;15.05;10.40;;;11.80;99.90;;;;;;5071717;28;20060;-44
2022/06/02 06:15:56;;;;;;;14.32;10.90;;;12.00;99.90;;;;;;5070660;28;20067;-44
2022/06/02 06:18:26;;;;;;;;;;;12.10;99.90;;;;;;5072406;28;20071;-44
2022/06/02 06:20:59;;;;;;;10.60;9.50;;;12.20;99.90;;;;;;5071718;28;19920;-43
2022/06/02 06:23:49;;;;;;;14.63;9.65;;;12.30;99.90;;;;;;5070514;28;20056;-43
2022/06/02 06:26:22;;;;;;;9.40;8.40;;;12.50;99.90;;;;;;5068859;28;20462;-44
2022/06/02 06:28:54;;;;;;;9.00;7.45;;;12.60;99.90;;;;;;5066810;28;20396;-43
2022/06/02 06:31:27;;;;;;;12.75;8.98;;;12.70;99.90;;;;;;5070374;28;20098;-44
2022/06/02 06:34:00;;;;;;;11.20;8.00;;;12.90;99.90;;;;;;5071232;28;20049;-44
2022/06/02 06:36:38;;;;;;;8.77;7.75;;;13.00;99.90;;;;;;5068588;28;20056;-44
2022/06/02 06:39:06;;;;;;;10.10;7.82;;;13.20;99.90;;;;;;5072942;28;20045;-44
2022/06/02 06:41:52;;;;;;;8.50;6.93;;;13.30;99.90;;;;;;5073327;28;20451;-44
2022/06/02 06:44:22;;;;;;;8.65;6.50;;;13.40;99.90;;;;;;5073417;28;20052;-44
2022/06/02 06:47:01;;;;;;;10.40;6.35;;;13.50;99.90;;;;;;5054916;28;20447;-44
2022/06/02 06:49:43;;;;;;;9.30;6.13;;;13.60;99.90;;;;;;5067315;28;20396;-44
2022/06/02 06:52:19;;;;;;;7.22;4.90;;;13.80;99.90;;;;;;5077565;28;20097;-44
2022/06/02 06:54:52;;;;;;;6.03;4.60;;;14.00;99.90;;;;;;5084649;28;20126;-45
2022/06/02 06:57:24;;;;;;;8.85;3.50;;;14.10;99.90;;;;;;5072202;28;20040;-44
2022/06/02 06:59:54;;;;;;;6.03;4.13;;;14.30;99.90;;;;;;5073658;28;20105;-44
2022/06/02 07:02:29;;;;;;;5.95;3.85;;;14.40;99.90;;;;;;5067105;28;20048;-44
2022/06/02 07:05:01;;;;;;;7.38;4.35;;;14.50;99.90;;;;;;5069774;28;20052;-44
2022/06/02 07:07:33;;;;;;;6.68;4.30;;;14.60;99.90;;;;;;5073718;28;20055;-44
2022/06/02 07:10:03;;;;;;;7.47;3.85;;;14.80;99.90;;;;;;5071534;28;20087;-44
2022/06/02 07:12:52;;;;;;;7.35;3.78;;;15.00;99.90;;;;;;5072019;28;20382;-44
2022/06/02 07:15:25;;;;;;;4.15;2.88;;;15.00;99.90;;;;;;5073520;28;20409;-45
2022/06/02 07:17:56;;;;;;;4.30;2.80;;;15.10;99.90;;;;;;5065998;28;20058;-44
2022/06/02 07:20:26;;;;;;;3.90;2.22;;;15.20;99.90;;;;;;5071490;28;20518;-44
2022/06/02 07:22:56;;;;;;;5.75;2.78;;;15.30;99.90;;;;;;5083950;28;20090;-44
2022/06/02 07:25:24;;;;;;;6.50;2.42;;;15.40;99.90;;;;;;5062220;28;20118;-44
2022/06/02 07:27:54;;;;;;;2.58;2.05;;;15.40;99.90;;;;;;5073745;28;20067;-45
2022/06/02 07:30:35;;;;;;;4.40;1.83;;;15.50;99.90;;;;;;5072952;28;20480;-45
2022/06/02 07:33:31;;;;;;;3.55;2.17;;;15.60;99.50;;;;;;5072855;28;20106;-44
2022/06/02 07:36:38;;;;;;;3.40;2.92;;;15.80;99.20;;;;;;5073807;28;20064;-45
2022/06/02 07:39:33;;;;;;;5.22;2.13;;;15.90;99.10;;;;;;5071832;28;20052;-44
2022/06/02 07:42:07;;;;;;;3.65;1.80;;;16.00;98.30;;;;;;5062420;28;20115;-45
2022/06/02 07:45:06;;;;;;;3.75;1.70;;;16.00;98.20;;;;;;5069387;28;20161;-45
2022/06/02 07:47:41;;;;;;;4.10;2.00;;;16.00;98.70;;;;;;5070507;28;20091;-44
2022/06/02 07:50:12;;;;;;;3.97;2.30;;;16.20;99.00;;;;;;5071336;28;20101;-44
2022/06/02 07:52:43;;;;;;;3.35;2.20;;;16.50;98.50;;;;;;5059187;28;20063;-44
2022/06/02 07:55:18;;;;;;;2.63;2.30;;;16.70;98.20;;;;;;5060230;28;20044;-44
2022/06/02 07:57:47;;;;;;;3.17;2.10;;;16.80;97.50;;;;;;5061145;28;20408;-44
2022/06/02 08:00:17;;;;;;;3.30;1.80;;;16.80;97.30;;;;;;5070687;28;20090;-45
2022/06/02 08:03:06;;;;;;;5.38;2.00;;;16.70;97.30;;;;;;5071329;28;20056;-44
2022/06/02 08:05:37;;;;;;;4.03;1.65;;;16.80;97.10;;;;;;5043085;28;20052;-45
2022/06/02 08:08:13;;;;;;;3.90;1.88;;;17.00;96.70;;;;;;5072394;28;20060;-44
2022/06/02 08:10:44;;;;;;;3.90;1.90;;;17.20;95.90;;;;;;5086672;28;20119;-44
2022/06/02 08:13:15;;;;;;;3.83;1.98;;;17.30;95.60;;;;;;5092322;28;20083;-44
2022/06/02 08:15:46;;;;;;;6.63;1.50;;;17.50;95.40;;;;;;5092434;28;20048;-43
2022/06/02 08:18:44;;;;;;;3.05;1.30;;;17.80;95.00;;;;;;5092661;28;20056;-45
2022/06/02 08:21:18;;;;;;;2.72;1.35;;;18.00;94.80;;;;;;5053699;28;20126;-45
2022/06/02 08:24:32;;;;;;;4.00;1.80;;;18.00;94.50;;;;;;5071888;28;20106;-44
2022/06/02 08:27:23;;;;;;;2.95;1.50;;;18.10;92.80;;;;;;5031261;28;20195;-45
2022/06/02 08:30:01;;;;;;;4.63;1.50;;;18.20;94.20;;;;;;5030799;28;20104;-45
2022/06/02 08:32:53;;;;;;;3.85;1.60;;;18.30;93.00;;;;;;5059507;28;20052;-45
2022/06/02 08:35:21;;;;;;;;;;;18.50;93.10;;;;;;5070059;28;20055;-43
2022/06/02 08:38:11;;;;;;;2.47;1.30;;;18.50;93.10;;;;;;5068199;28;19967;-44
2022/06/02 08:41:31;;;;;;;4.65;1.40;;;18.70;92.90;;;;;;5069157;28;20103;-43
2022/06/02 08:44:43;;;;;;;5.13;1.73;;;18.70;92.90;;;;;;5050209;28;20149;-43
2022/06/02 08:47:40;;;;;;;3.50;1.25;;;18.90;92.60;;;;;;5072344;28;20323;-44
2022/06/02 08:50:27;;;;;;;1.80;1.08;;;18.90;91.70;;;;;;5071514;28;20055;-44
2022/06/02 08:53:33;;;;;;;1.58;1.20;;;19.00;91.50;;;;;;5054273;28;20090;-44
2022/06/02 08:56:25;;;;;;;2.92;1.13;;;19.10;91.00;;;;;;5058319;28;20554;-44
2022/06/02 08:59:07;;;;;;;2.78;0.90;;;19.20;91.70;;;;;;5053366;28;20410;-43
2022/06/02 09:01:58;;;;;;;2.40;0.90;;;19.50;91.10;;;;;;5075183;28;20044;-43
2022/06/02 09:04:54;;;;;;;1.85;0.93;;;19.70;91.00;;;;;;5070142;28;20066;-43
2022/06/02 09:07:56;;;;;;;2.60;1.42;;;19.80;90.60;;;;;;5068006;28;20053;-43
2022/06/02 09:10:35;;;;;;;1.40;1.00;;;20.10;88.80;;;;;;5055214;28;20183;-43
2022/06/02 09:13:18;;;;;;;3.53;0.90;;;20.20;88.00;;;;;;5056095;28;20051;-43
2022/06/02 09:16:13;;;;;;;1.55;0.90;;;20.30;87.00;;;;;;5082058;28;20546;-44
2022/06/02 09:19:18;;;;;;;2.13;1.35;;;20.40;86.60;;;;;;5072747;28;20055;-44
2022/06/02 09:22:05;;;;;;;1.30;0.95;;;20.20;86.10;;;;;;5038868;28;20534;-43
2022/06/02 09:24:34;;;;;;;3.78;1.20;;;20.00;86.90;;;;;;5056736;28;20049;-44
2022/06/02 09:27:33;;;;;;;3.45;1.08;;;19.80;86.90;;;;;;5052614;28;20049;-44
2022/06/02 09:30:01;;;;;;;1.80;1.00;;;19.90;89.20;;;;;;5081882;28;20097;-44
2022/06/02 09:32:50;;;;;;;3.95;1.13;;;20.00;88.10;;;;;;5071192;28;20056;-44
2022/06/02 09:35:20;;;;;;;1.60;0.88;;;20.20;87.90;;;;;;5072291;28;20056;-44
2022/06/02 09:38:01;;;;;;;2.08;1.05;;;20.40;86.50;;;;;;5071011;28;20052;-44
2022/06/02 09:40:48;;;;;;;2.15;1.10;;;20.60;86.10;;;;;;5071725;28;20520;-45
2022/06/02 09:43:37;;;;;;;3.95;1.20;;;20.90;85.80;;;;;;5052699;28;20115;-44
2022/06/02 09:46:12;;;;;;;1.75;1.00;;;21.00;85.30;;;;;;5071233;28;20136;-44
2022/06/02 09:48:50;;;;;;;4.15;1.23;;;21.10;84.30;;;;;;5071957;28;20481;-44
2022/06/02 09:51:29;;;;;;;4.95;1.40;;;21.40;84.90;;;;;;5071994;28;20048;-44
2022/06/02 09:54:29;;;;;;;2.15;1.10;;;21.40;83.60;;;;;;5070866;28;20467;-44
2022/06/02 10:00:13;;;;;;;2.42;1.08;;;21.10;84.80;;;;;;5059132;28;20048;-44
2022/06/02 10:02:43;;;;;;;5.10;1.15;;;20.90;83.60;;;;;;5069847;28;20057;-44
2022/06/02 10:05:18;;;;;;;4.53;1.25;;;20.90;83.40;;;;;;5056533;28;20045;-44
2022/06/02 10:07:53;;;;;;;1.33;0.90;;;21.00;83.00;;;;;;5067119;28;20052;-43
2022/06/02 10:10:29;;;;;;;2.97;1.42;;;21.30;82.60;;;;;;5071784;28;20044;-44
2022/06/02 10:13:07;;;;;;;2.35;1.17;;;21.70;81.60;;;;;;5059101;28;20084;-44
2022/06/02 10:15:42;;;;;;;3.28;1.10;;;21.90;79.90;;;;;;5059830;28;20161;-44
2022/06/02 10:18:19;;;;;;;3.08;1.27;;;21.90;79.90;;;;;;5055857;28;20045;-43
2022/06/02 10:21:10;;;;;;;1.67;0.95;;;21.80;80.00;;;;;;5054887;28;20040;-43
2022/06/02 10:24:38;;;;;;;2.67;1.17;;;21.60;79.10;;;;;;5055452;28;20071;-43
2022/06/02 10:27:13;;;;;;;3.53;1.33;;;21.40;81.50;;;;;;5069005;28;20083;-43
2022/06/02 10:30:17;;;;;;;1.20;1.00;;;21.30;82.00;;;;;;5061660;28;20098;-44
2022/06/02 10:33:32;;;;;;;2.33;1.10;;;21.30;83.30;;;;;;5051317;28;20059;-43
2022/06/02 10:36:42;;;;;;;3.20;0.88;;;21.50;80.10;;;;;;5054213;28;20444;-43
2022/06/02 10:39:22;;;;;;;2.60;1.10;;;21.70;79.60;;;;;;5059900;28;20044;-43
2022/06/02 10:42:04;;;;;;;2.33;1.20;;;21.90;79.90;;;;;;5062743;28;20045;-43
2022/06/02 10:44:49;;;;;;;3.13;1.30;;;22.20;78.90;;;;;;5079641;28;20052;-44
2022/06/02 10:47:44;;;;;;;2.05;1.00;;;22.40;76.40;;;;;;5092990;28;20083;-43
2022/06/02 10:50:20;;;;;;;3.80;1.20;;;22.20;76.70;;;;;;5074868;28;20102;-43
2022/06/02 10:53:12;;;;;;;2.78;1.10;;;21.90;77.00;;;;;;5072116;28;20482;-43
2022/06/02 10:56:13;;;;;;;2.50;1.25;;;21.80;77.30;;;;;;5054892;28;20041;-44
2022/06/02 10:59:12;;;;;;;4.10;1.30;;;21.70;77.80;;;;;;5067976;28;20413;-43
2022/06/02 11:02:16;;;;;;;1.35;1.00;;;21.60;76.30;;;;;;5068384;28;21486;-44
2022/06/02 11:05:21;;;;;;;2.50;1.30;;;21.40;78.80;;;;;;5065850;28;20123;-43
2022/06/02 11:08:24;;;;;;;2.83;1.50;;;21.30;78.30;;;;;;5071907;28;20052;-45
2022/06/02 11:11:02;;;;;;;2.45;1.20;;;21.40;76.00;;;;;;5059453;28;20084;-46
2022/06/02 11:14:11;;;;;;;4.05;1.15;;;21.40;76.50;;;;;;5066723;28;20048;-43
2022/06/02 11:16:59;;;;;;;2.10;1.55;;;21.50;77.00;;;;;;5070605;28;20060;-43
2022/06/02 11:19:59;;;;;;;2.03;1.10;;;21.70;74.30;;;;;;5047978;28;20110;-44
2022/06/02 11:22:42;;;;;;;3.10;0.90;;;21.80;75.70;;;;;;5059119;28;20049;-43
2022/06/02 11:25:50;;;;;;;1.70;1.10;;;21.70;75.40;;;;;;5054716;28;20040;-43
2022/06/02 11:28:48;;;;;;;3.83;1.33;;;21.60;75.30;;;;;;5031972;28;20103;-42
2022/06/02 11:31:44;;;;;;;5.72;1.50;;;21.70;75.30;;;;;;5057707;28;20044;-43
2022/06/02 11:34:38;;;;;;;2.08;1.38;;;21.90;76.10;;;;;;5055237;28;20048;-44
2022/06/02 11:37:18;;;;;;;1.90;1.00;;;22.10;75.20;;;;;;5051776;28;20052;-45
2022/06/02 11:40:18;;;;;;;2.47;1.10;;;22.40;75.10;;;;;;5064203;28;20478;-43
2022/06/02 11:43:04;;;;;;;3.28;1.10;;;22.60;75.10;;;;;;5065645;28;20052;-44
2022/06/02 11:46:08;;;;;;;1.45;0.85;;;22.90;73.70;;;;;;5053080;28;20106;-43
2022/06/02 11:48:50;;;;;;;2.90;1.20;;;23.10;70.60;;;;;;5061609;28;20056;-44
2022/06/02 11:51:34;;;;;;;1.40;0.88;;;23.00;68.60;;;;;;5058623;28;20057;-43
2022/06/02 11:54:19;;;;;;;3.15;1.02;;;23.10;68.70;;;;;;5055386;28;20052;-45
2022/06/02 11:56:53;;;;;;;2.88;1.10;;;23.30;71.30;;;;;;5074179;28;20352;-44
2022/06/02 11:59:54;;;;;;;3.38;1.60;;;23.50;70.10;;;;;;5073277;28;20062;-44
2022/06/02 12:02:56;;;;;;;2.50;0.80;;;23.70;70.10;;;;;;5053425;28;20111;-43
2022/06/02 12:05:43;;;;;;;3.65;1.00;;;23.70;69.60;;;;;;5062852;28;20052;-44
2022/06/02 12:08:43;;;;;;;3.08;1.17;;;23.60;70.70;;;;;;5065802;28;20052;-44
2022/06/02 12:11:48;;;;;;;1.88;0.93;;;23.50;69.40;;;;;;5073192;28;20074;-44
2022/06/02 12:14:26;;;;;;;5.72;1.33;;;23.20;70.20;;;;;;5053695;28;20557;-44
2022/06/02 12:17:12;;;;;;;2.67;0.98;;;23.10;70.50;;;;;;5057752;28;20403;-44
2022/06/02 12:19:52;;;;;;;3.10;1.20;;;23.30;71.80;;;;;;5065147;28;20452;-44
2022/06/02 12:22:47;;;;;;;2.75;1.00;;;23.50;68.20;;;;;;5056760;28;20131;-44
2022/06/02 12:25:33;;;;;;;2.08;0.90;;;23.60;68.70;;;;;;5057026;28;20090;-44
2022/06/02 12:28:21;;;;;;;2.72;1.10;;;23.70;70.00;;;;;;5054524;28;20576;-44
2022/06/02 12:31:15;;;;;;;2.42;0.90;;;23.90;67.30;;;;;;5053322;28;20488;-44
2022/06/02 12:33:54;;;;;;;2.38;0.73;;;24.10;67.70;;;;;;5055284;28;20057;-43
2022/06/02 12:36:47;;;;;;;3.63;1.15;;;24.30;66.40;;;;;;5053175;28;20053;-43
2022/06/02 12:39:35;;;;;;;1.27;0.98;;;24.50;65.30;;;;;;5054136;28;20110;-43
2022/06/02 12:42:41;;;;;;;1.73;0.90;;;24.40;65.40;;;;;;5052799;28;20471;-43
2022/06/02 12:45:19;;;;;;;4.03;1.05;;;24.00;65.60;;;;;;5013360;28;20807;-43
2022/06/02 12:48:12;;;;;;;2.13;1.00;;;23.80;65.70;;;;;;5062488;28;20171;-44
2022/06/02 12:50:52;;;;;;;2.20;0.90;;;23.70;68.10;;;;;;5069109;28;20044;-45
2022/06/02 12:53:56;;;;;;;2.67;0.90;;;23.90;66.80;;;;;;5069012;28;20052;-43
2022/06/02 12:56:52;;;;;;;1.58;0.90;;;24.00;65.20;;;;;;5056258;28;20049;-43
2022/06/02 12:59:57;;;;;;;1.90;0.80;;;24.10;66.40;;;;;;5065815;28;20113;-43
2022/06/02 13:02:28;;;;;;;4.32;1.15;;;24.30;64.70;;;;;;5039853;28;20106;-45
2022/06/02 13:05:29;;;;;;;2.25;0.82;;;24.40;65.20;;;;;;5052119;28;20053;-44
2022/06/02 13:08:39;;;;;;;2.35;0.88;;;24.60;65.60;;;;;;5045082;28;20548;-45
2022/06/02 13:11:37;;;;;;;2.67;1.15;;;24.70;66.20;;;;;;5065900;28;20107;-44
2022/06/02 13:14:34;;;;;;;6.35;1.10;;;25.00;66.30;;;;;;5039655;28;20503;-44
2022/06/02 13:17:13;;;;;;;3.63;1.10;;;25.40;66.00;;;;;;5069577;28;20057;-44
2022/06/02 13:19:54;;;;;;;1.75;0.77;;;25.60;63.60;;;;;;5059430;28;20049;-44
2022/06/02 13:22:49;;;;;;;5.43;1.13;;;25.50;64.90;;;;;;5060558;28;20067;-44
2022/06/02 13:25:33;;;;;;;2.72;0.82;;;25.30;64.00;;;;;;5057578;28;20053;-44
2022/06/02 13:28:23;;;;;;;3.97;1.00;;;25.10;64.20;;;;;;5061138;28;20374;-45
2022/06/02 13:31:15;;;;;;;2.15;0.70;;;25.00;64.40;;;;;;5066685;28;20496;-44
2022/06/02 13:34:04;;;;;;;1.98;0.70;;;24.90;63.90;;;;;;5054753;28;20091;-44
2022/06/02 13:36:41;;;;;;;3.13;0.70;;;24.80;62.30;;;;;;5061393;28;20570;-44
2022/06/02 13:39:34;;;;;;;1.25;0.80;;;24.90;59.60;;;;;;5069417;28;20087;-45
2022/06/02 13:42:22;;;;;;;1.38;0.73;;;25.10;60.50;;;;;;5078162;28;20048;-45
2022/06/02 13:45:07;;;;;;;1.80;0.80;;;25.20;58.60;;;;;;5072126;28;20044;-45
2022/06/02 13:48:04;;;;;;;3.08;0.80;;;25.20;59.10;;;;;;5078872;28;20109;-43
2022/06/02 13:51:22;;;;;;;1.25;0.80;;;25.20;60.60;;;;;;5065927;28;20048;-43
2022/06/02 13:59:49;;;;;;;1.88;1.10;;;25.00;60.10;;;;;;5056681;28;20132;-44
2022/06/02 14:02:41;;;;;;;4.47;1.30;;;25.10;61.70;;;;;;5066712;28;21428;-43
2022/06/02 14:05:17;;;;;;;2.10;1.13;;;25.20;62.00;;;;;;5050430;28;20056;-45
2022/06/02 14:08:06;;;;;;;2.15;1.10;;;25.20;61.60;;;;;;5091210;28;20048;-44
2022/06/02 14:10:45;;;;;;;1.85;0.85;;;25.10;61.80;;;;;;5064074;28;20079;-44
2022/06/02 14:13:27;;;;;;;1.45;0.90;;;24.90;63.00;;;;;;5082091;28;20048;-44
2022/06/02 14:16:00;;;;;;;1.90;0.90;;;24.80;62.10;;;;;;5070123;28;20041;-45